Time;durP1;ratioP1;P1;durP2;ratioP2;P2;SDS_P1;SDS_P2;PMS_P1;PMS_P2;Temp;Humidity;BMP_temperature;BMP_pressure;BME280_temperature;BME280_humidity;BME280_pressure;Samples;Min_cycle;Max_cycle;Signal;HPM_P1;HPM_P2
2022/03/30 00:00:31;;;;;;;20.17;17.60;;;12.00;7.20;;;;;;4999068;28;20242;-72
2022/03/30 00:02:57;;;;;;;19.37;17.70;;;12.00;7.20;;;;;;4990817;28;20612;-72
2022/03/30 00:05:22;;;;;;;20.10;17.33;;;11.90;7.20;;;;;;4993079;28;20266;-71
2022/03/30 00:07:54;;;;;;;27.33;19.63;;;11.90;7.20;;;;;;4993460;28;20269;-72
2022/03/30 00:10:21;;;;;;;19.10;17.17;;;12.00;7.80;;;;;;5006937;28;20210;-71
2022/03/30 00:12:47;;;;;;;19.70;17.80;;;12.00;7.50;;;;;;4991981;28;20553;-71
2022/03/30 00:15:14;;;;;;;19.73;17.73;;;12.00;7.60;;;;;;4991993;28;20427;-71
2022/03/30 00:17:39;;;;;;;22.73;19.87;;;11.90;7.70;;;;;;4992042;28;20439;-72
2022/03/30 00:20:06;;;;;;;19.20;17.50;;;12.00;7.50;;;;;;4990670;28;20478;-71
2022/03/30 00:22:31;;;;;;;21.00;18.10;;;12.10;7.40;;;;;;4990868;28;20190;-72
2022/03/30 00:24:57;;;;;;;18.70;17.40;;;12.10;7.70;;;;;;4989755;28;20515;-71
2022/03/30 00:27:22;;;;;;;20.13;18.07;;;12.00;7.90;;;;;;4991071;28;20282;-71
2022/03/30 00:29:49;;;;;;;21.33;17.30;;;11.90;8.10;;;;;;4992561;28;20674;-72
2022/03/30 00:32:14;;;;;;;24.47;19.90;;;11.80;8.40;;;;;;4999226;28;20290;-72
2022/03/30 00:34:40;;;;;;;19.87;17.97;;;11.90;8.40;;;;;;4994391;28;20608;-71
2022/03/30 00:37:07;;;;;;;28.27;17.67;;;11.90;8.40;;;;;;4995359;28;20175;-72
2022/03/30 00:39:33;;;;;;;19.00;17.23;;;11.90;8.40;;;;;;4996489;28;20242;-72
2022/03/30 00:41:58;;;;;;;18.70;16.80;;;11.90;8.40;;;;;;4997595;28;20793;-72
2022/03/30 00:44:24;;;;;;;20.40;17.97;;;11.80;8.40;;;;;;5003487;28;20200;-71
2022/03/30 00:46:50;;;;;;;17.23;15.90;;;11.80;8.60;;;;;;5011018;28;20223;-71
2022/03/30 00:49:15;;;;;;;17.83;15.97;;;11.80;8.50;;;;;;4997414;28;20218;-71
2022/03/30 00:51:41;;;;;;;19.70;17.80;;;11.70;8.90;;;;;;4997376;28;20209;-71
2022/03/30 00:54:07;;;;;;;19.60;17.60;;;11.80;8.90;;;;;;5012280;28;20182;-71
2022/03/30 00:56:35;;;;;;;19.83;17.77;;;11.80;9.00;;;;;;4996995;28;20897;-72
2022/03/30 00:59:02;;;;;;;19.70;17.50;;;11.80;9.10;;;;;;5013129;28;20201;-72
2022/03/30 01:01:28;;;;;;;20.13;17.90;;;11.70;9.30;;;;;;4997461;28;20408;-72
2022/03/30 01:03:54;;;;;;;20.97;18.93;;;11.70;9.20;;;;;;4998295;28;20453;-72
2022/03/30 01:06:19;;;;;;;21.03;17.27;;;11.70;9.50;;;;;;4993588;28;20468;-72
2022/03/30 01:08:46;;;;;;;19.13;17.50;;;11.70;9.60;;;;;;4994966;28;20468;-71
2022/03/30 01:11:12;;;;;;;20.10;18.00;;;11.60;9.50;;;;;;5009925;28;20173;-71
2022/03/30 01:13:38;;;;;;;18.33;17.10;;;11.70;9.70;;;;;;4994895;28;20954;-71
2022/03/30 01:16:04;;;;;;;22.00;16.83;;;11.70;9.60;;;;;;4995211;28;20177;-71
2022/03/30 01:18:38;;;;;;;19.23;17.23;;;11.60;9.90;;;;;;4995131;28;20432;-71
2022/03/30 01:21:04;;;;;;;19.23;17.63;;;11.20;10.50;;;;;;4994699;28;20426;-71
2022/03/30 01:23:30;;;;;;;23.10;16.43;;;11.30;10.60;;;;;;4995651;28;20563;-71
2022/03/30 01:25:56;;;;;;;18.63;17.07;;;11.20;10.50;;;;;;4995782;28;20449;-71
2022/03/30 01:28:27;;;;;;;18.73;17.33;;;11.30;10.60;;;;;;4994277;28;20202;-71
2022/03/30 01:33:48;;;;;;;18.63;17.20;;;11.40;10.60;;;;;;4994491;28;20422;-70
2022/03/30 01:36:16;;;;;;;18.73;17.40;;;11.40;10.60;;;;;;4993102;28;20459;-71
2022/03/30 01:38:45;;;;;;;19.13;17.57;;;11.40;10.60;;;;;;5008735;28;20452;-71
2022/03/30 01:41:11;;;;;;;19.07;17.43;;;11.50;10.70;;;;;;5008423;28;20968;-71
2022/03/30 01:43:36;;;;;;;25.43;18.20;;;11.50;10.70;;;;;;4994565;28;20420;-70
2022/03/30 01:46:02;;;;;;;19.07;17.57;;;11.50;10.70;;;;;;4994247;28;20443;-71
2022/03/30 01:48:27;;;;;;;18.43;16.90;;;11.40;10.70;;;;;;4997412;28;20192;-71
2022/03/30 01:50:53;;;;;;;20.53;18.63;;;11.50;10.70;;;;;;5002164;28;20278;-71
2022/03/30 01:53:18;;;;;;;18.13;16.40;;;11.50;10.70;;;;;;4994462;28;20741;-71
2022/03/30 01:55:45;;;;;;;18.57;17.30;;;11.60;10.80;;;;;;4992834;28;20273;-72
2022/03/30 01:58:11;;;;;;;17.83;16.37;;;11.60;10.80;;;;;;4993896;28;20603;-72
2022/03/30 02:00:37;;;;;;;18.53;17.07;;;11.70;10.50;;;;;;4993277;28;20484;-71
2022/03/30 02:03:02;;;;;;;19.63;18.13;;;11.60;10.80;;;;;;4993452;28;20267;-72
2022/03/30 02:05:31;;;;;;;30.27;18.50;;;11.60;10.80;;;;;;4992538;28;20547;-71
2022/03/30 02:07:56;;;;;;;25.63;17.60;;;11.50;10.70;;;;;;4994211;28;20229;-71
2022/03/30 02:10:22;;;;;;;19.63;16.87;;;11.50;10.70;;;;;;4996197;28;20445;-71
2022/03/30 02:12:48;;;;;;;20.60;18.90;;;11.40;10.60;;;;;;5010291;28;20206;-71
2022/03/30 02:15:13;;;;;;;25.00;18.23;;;11.50;10.70;;;;;;4996193;28;20475;-71
2022/03/30 02:17:40;;;;;;;19.77;17.83;;;11.40;11.00;;;;;;5006855;28;20182;-71
2022/03/30 02:20:07;;;;;;;17.63;16.23;;;11.30;10.90;;;;;;4995173;28;20218;-71
2022/03/30 02:22:33;;;;;;;18.50;17.10;;;11.30;10.90;;;;;;4995784;28;20420;-71
2022/03/30 02:24:58;;;;;;;18.70;17.10;;;11.20;11.30;;;;;;4996388;28;20424;-71
2022/03/30 02:27:24;;;;;;;19.13;17.13;;;11.10;11.10;;;;;;4996205;28;20409;-71
2022/03/30 02:29:51;;;;;;;18.97;17.23;;;11.10;11.10;;;;;;4993714;28;20213;-71
2022/03/30 02:32:18;;;;;;;18.73;17.20;;;11.10;10.90;;;;;;4993506;28;20703;-71
2022/03/30 02:34:44;;;;;;;21.77;16.80;;;11.00;11.00;;;;;;4992065;28;20448;-71
2022/03/30 02:37:10;;;;;;;18.83;16.93;;;11.00;10.90;;;;;;4990604;28;20447;-71
2022/03/30 02:39:36;;;;;;;19.43;17.50;;;11.00;11.10;;;;;;4992730;28;20823;-71
2022/03/30 02:42:02;;;;;;;19.10;17.30;;;11.10;11.00;;;;;;4993035;28;20422;-71
2022/03/30 02:44:28;;;;;;;18.53;17.27;;;11.10;11.00;;;;;;5004203;28;20590;-71
2022/03/30 02:46:54;;;;;;;21.60;18.20;;;11.10;11.00;;;;;;5027685;28;20449;-71
2022/03/30 02:49:19;;;;;;;17.00;15.83;;;11.00;10.80;;;;;;5013767;28;20972;-71
2022/03/30 02:51:45;;;;;;;18.70;16.83;;;11.10;10.90;;;;;;5014808;28;20562;-71
2022/03/30 02:54:11;;;;;;;20.60;17.00;;;11.00;11.10;;;;;;5013525;28;20538;-71
2022/03/30 02:56:37;;;;;;;19.03;17.50;;;11.10;10.80;;;;;;5013841;28;20513;-71
2022/03/30 02:59:02;;;;;;;17.40;15.93;;;11.10;10.70;;;;;;5001633;28;20631;-71
2022/03/30 03:01:28;;;;;;;19.47;17.30;;;11.20;10.70;;;;;;4992587;28;20213;-71
2022/03/30 03:03:54;;;;;;;18.03;16.63;;;11.20;10.50;;;;;;4992997;28;20185;-72
2022/03/30 03:06:19;;;;;;;27.13;17.30;;;11.20;10.70;;;;;;4991597;28;20670;-71
2022/03/30 03:08:45;;;;;;;18.80;17.20;;;11.30;10.60;;;;;;4991606;28;20209;-71
2022/03/30 03:11:10;;;;;;;17.80;16.70;;;11.30;10.60;;;;;;4990838;28;20189;-73
2022/03/30 03:13:36;;;;;;;18.87;17.47;;;11.30;11.10;;;;;;4992403;28;20221;-71
2022/03/30 03:16:02;;;;;;;19.00;17.00;;;11.20;11.00;;;;;;4992842;28;20168;-71
2022/03/30 03:18:28;;;;;;;17.83;16.40;;;11.20;11.00;;;;;;4993407;28;20420;-72
2022/03/30 03:20:53;;;;;;;21.53;17.27;;;11.20;10.70;;;;;;4993571;28;20953;-71
2022/03/30 03:23:19;;;;;;;19.00;17.13;;;11.20;10.50;;;;;;4995442;28;20196;-71
2022/03/30 03:25:45;;;;;;;18.03;16.63;;;11.20;10.50;;;;;;4992618;28;20725;-71
2022/03/30 03:28:12;;;;;;;21.17;17.30;;;11.10;10.40;;;;;;5005151;28;20193;-72
2022/03/30 03:30:38;;;;;;;19.77;17.70;;;11.10;10.60;;;;;;4994674;28;20352;-71
2022/03/30 03:33:05;;;;;;;17.30;16.00;;;11.10;10.70;;;;;;5010346;28;20468;-71
2022/03/30 03:35:31;;;;;;;18.70;16.77;;;11.20;10.80;;;;;;5010321;28;20458;-71
2022/03/30 03:37:57;;;;;;;17.30;15.87;;;11.30;10.60;;;;;;4994552;28;20412;-71
2022/03/30 03:40:23;;;;;;;17.80;16.23;;;11.30;10.60;;;;;;4994833;28;20200;-71
2022/03/30 03:42:48;;;;;;;17.23;16.00;;;11.30;10.60;;;;;;4999983;28;21028;-71
2022/03/30 03:45:14;;;;;;;18.67;17.17;;;11.30;10.90;;;;;;4994193;28;20425;-71
2022/03/30 03:47:41;;;;;;;18.67;17.10;;;11.30;11.00;;;;;;4992123;28;20598;-71
2022/03/30 03:50:07;;;;;;;18.17;16.67;;;11.30;11.40;;;;;;4995046;28;20451;-71
2022/03/30 03:52:33;;;;;;;20.00;17.57;;;11.20;12.20;;;;;;4992342;28;20829;-71
2022/03/30 03:54:59;;;;;;;17.30;16.20;;;11.10;12.90;;;;;;5001412;28;20430;-71
2022/03/30 03:57:24;;;;;;;17.90;16.70;;;11.20;12.70;;;;;;5013317;28;20697;-71
2022/03/30 03:59:51;;;;;;;16.77;15.17;;;11.20;13.00;;;;;;5013411;28;20436;-71
2022/03/30 04:02:16;;;;;;;27.50;16.33;;;11.10;14.80;;;;;;5011959;28;20172;-71
2022/03/30 04:04:43;;;;;;;18.77;17.13;;;11.10;14.80;;;;;;5012848;28;20419;-71
2022/03/30 04:07:09;;;;;;;17.37;15.83;;;11.10;14.80;;;;;;4997317;28;20657;-71
2022/03/30 04:09:36;;;;;;;16.70;15.40;;;11.20;14.90;;;;;;5009187;28;20470;-71
2022/03/30 04:12:01;;;;;;;16.57;14.93;;;11.20;15.70;;;;;;4996215;28;20576;-71
2022/03/30 04:14:27;;;;;;;22.03;15.10;;;11.20;16.30;;;;;;4995072;28;20427;-71
2022/03/30 04:16:53;;;;;;;19.20;17.23;;;11.20;17.10;;;;;;4995600;28;20182;-71
2022/03/30 04:19:18;;;;;;;18.77;16.50;;;11.20;16.60;;;;;;4995824;28;20255;-71
2022/03/30 04:21:44;;;;;;;16.90;15.40;;;11.20;16.90;;;;;;4996329;28;20217;-71
2022/03/30 04:24:10;;;;;;;19.23;17.13;;;11.10;16.60;;;;;;4995820;28;20189;-71
2022/03/30 04:26:36;;;;;;;21.70;16.00;;;10.80;18.10;;;;;;4996090;28;20892;-71
2022/03/30 04:29:02;;;;;;;18.77;17.13;;;10.60;18.80;;;;;;5012043;28;20603;-71
2022/03/30 04:31:28;;;;;;;25.20;17.20;;;10.60;18.80;;;;;;5011037;28;20970;-71
2022/03/30 04:33:53;;;;;;;17.93;16.00;;;10.80;18.90;;;;;;4997704;28;20424;-71
2022/03/30 04:36:19;;;;;;;18.10;16.40;;;10.90;19.00;;;;;;5011315;28;20181;-71
2022/03/30 04:38:45;;;;;;;19.03;15.20;;;10.90;19.00;;;;;;5010189;28;20192;-71
2022/03/30 04:41:11;;;;;;;18.60;16.77;;;10.80;19.90;;;;;;4994179;28;20431;-71
2022/03/30 04:43:36;;;;;;;31.70;18.10;;;10.90;19.20;;;;;;4994428;28;20221;-71
2022/03/30 04:46:02;;;;;;;17.80;14.33;;;10.70;21.40;;;;;;4994680;28;20225;-71
2022/03/30 04:48:27;;;;;;;18.90;15.43;;;10.60;23.30;;;;;;4993059;28;20555;-68
2022/03/30 04:50:53;;;;;;;14.33;12.73;;;10.70;22.90;;;;;;5004288;28;20219;-69
2022/03/30 04:53:19;;;;;;;16.73;13.43;;;10.70;23.10;;;;;;5030741;28;20694;-70
2022/03/30 04:55:45;;;;;;;15.10;12.73;;;10.70;23.10;;;;;;5016626;28;20193;-69
2022/03/30 04:58:10;;;;;;;18.60;14.77;;;10.60;23.00;;;;;;5016139;28;20801;-69
2022/03/30 05:00:36;;;;;;;14.33;12.53;;;10.60;25.10;;;;;;5016584;28;20197;-69
2022/03/30 05:03:03;;;;;;;13.93;11.97;;;10.60;24.90;;;;;;5015315;28;20210;-69
2022/03/30 05:05:28;;;;;;;16.30;12.20;;;10.60;25.80;;;;;;5015058;28;20195;-70
2022/03/30 05:07:57;;;;;;;13.30;12.10;;;10.60;26.30;;;;;;5015047;28;20438;-69
2022/03/30 05:10:23;;;;;;;16.53;12.60;;;10.60;25.90;;;;;;5014547;28;20198;-69
2022/03/30 05:12:49;;;;;;;14.63;11.10;;;10.60;26.00;;;;;;5014868;28;20467;-69
2022/03/30 05:15:14;;;;;;;12.43;11.03;;;10.50;27.30;;;;;;5032021;28;20655;-69
2022/03/30 05:17:46;;;;;;;15.33;12.20;;;10.60;27.20;;;;;;5030412;28;20176;-69
2022/03/30 05:20:13;;;;;;;13.90;12.60;;;10.70;27.20;;;;;;5015398;28;20637;-69
2022/03/30 05:22:38;;;;;;;19.73;12.60;;;10.70;27.30;;;;;;5029868;28;20432;-69
2022/03/30 05:25:05;;;;;;;12.47;11.13;;;10.70;27.30;;;;;;5014498;28;20854;-70
2022/03/30 05:27:31;;;;;;;13.40;11.83;;;10.70;27.60;;;;;;5013984;28;20173;-71
2022/03/30 05:29:57;;;;;;;15.47;12.10;;;10.70;27.20;;;;;;5014037;28;20519;-71
2022/03/30 05:32:22;;;;;;;13.10;10.30;;;10.60;27.20;;;;;;5014640;28;21031;-69
2022/03/30 05:34:48;;;;;;;13.30;11.00;;;10.70;27.90;;;;;;5031519;28;20180;-69
2022/03/30 05:37:13;;;;;;;13.37;10.73;;;10.70;28.40;;;;;;5015939;28;20181;-69
2022/03/30 05:39:41;;;;;;;17.33;11.73;;;10.70;27.40;;;;;;5016295;28;20695;-68
2022/03/30 05:42:07;;;;;;;11.53;10.57;;;10.70;28.50;;;;;;5016483;28;20173;-68
2022/03/30 05:44:33;;;;;;;11.73;10.17;;;10.70;28.40;;;;;;5015984;28;20423;-68
2022/03/30 05:46:58;;;;;;;12.17;10.87;;;10.70;29.00;;;;;;5012970;28;20469;-69
2022/03/30 05:49:24;;;;;;;13.53;10.93;;;10.70;29.30;;;;;;4994288;28;20204;-69
2022/03/30 05:51:50;;;;;;;16.80;11.03;;;10.70;29.90;;;;;;4999144;28;20219;-69
2022/03/30 05:54:16;;;;;;;13.17;11.90;;;10.70;29.60;;;;;;5001915;28;20551;-69
2022/03/30 05:57:00;;;;;;;12.63;10.70;;;10.80;29.60;;;;;;4996518;28;20441;-68
2022/03/30 05:59:30;;;;;;;16.23;12.10;;;10.80;29.90;;;;;;4994880;28;20463;-68
2022/03/30 06:01:57;;;;;;;24.70;13.83;;;10.80;29.70;;;;;;4994351;28;20436;-68
2022/03/30 06:04:23;;;;;;;13.07;11.87;;;10.80;29.70;;;;;;4997176;28;21006;-69
2022/03/30 06:06:52;;;;;;;12.60;10.80;;;10.80;30.00;;;;;;4996611;28;20420;-68
2022/03/30 06:09:18;;;;;;;19.33;12.40;;;10.80;30.00;;;;;;4996276;28;20471;-68
2022/03/30 06:11:44;;;;;;;13.70;10.70;;;10.90;29.70;;;;;;4994370;28;20483;-68
2022/03/30 06:14:10;;;;;;;18.83;12.80;;;10.60;31.50;;;;;;5003990;28;20435;-68
2022/03/30 06:16:36;;;;;;;19.60;12.00;;;10.60;32.60;;;;;;5013776;28;20986;-68
2022/03/30 06:19:02;;;;;;;17.23;11.60;;;10.20;35.40;;;;;;5012513;28;20641;-69
2022/03/30 06:21:28;;;;;;;14.43;10.67;;;10.20;36.30;;;;;;5014321;28;20169;-68
2022/03/30 06:23:54;;;;;;;20.83;10.93;;;10.40;34.90;;;;;;5012557;28;20489;-68
2022/03/30 06:26:20;;;;;;;12.83;9.23;;;10.60;34.40;;;;;;5002516;28;20426;-68
2022/03/30 06:28:47;;;;;;;15.80;10.83;;;10.60;33.30;;;;;;5013474;28;20453;-68
2022/03/30 06:31:17;;;;;;;11.70;10.03;;;10.70;31.60;;;;;;5014217;28;20176;-68
2022/03/30 06:33:46;;;;;;;15.43;12.93;;;10.80;30.70;;;;;;5011217;28;20460;-67
2022/03/30 06:36:12;;;;;;;15.80;10.90;;;10.90;30.40;;;;;;5010318;28;20436;-68
2022/03/30 06:38:38;;;;;;;13.83;11.40;;;10.90;30.00;;;;;;5004106;28;20433;-67
2022/03/30 06:41:07;;;;;;;12.87;10.63;;;11.00;29.70;;;;;;5008418;28;20436;-68
2022/03/30 06:43:33;;;;;;;13.87;10.93;;;11.00;29.70;;;;;;5010360;28;20581;-68
2022/03/30 06:45:58;;;;;;;14.50;11.60;;;11.00;30.10;;;;;;5006328;28;20522;-69
2022/03/30 06:48:24;;;;;;;16.97;11.63;;;11.10;29.90;;;;;;5010651;28;20435;-69
2022/03/30 06:50:49;;;;;;;12.90;11.80;;;11.20;29.50;;;;;;5021514;28;20199;-68
2022/03/30 06:53:15;;;;;;;11.40;10.27;;;11.10;29.10;;;;;;5014603;28;20294;-67
2022/03/30 06:55:41;;;;;;;11.23;10.20;;;11.10;29.40;;;;;;5023677;28;20172;-69
2022/03/30 06:58:06;;;;;;;13.13;10.53;;;11.10;29.60;;;;;;5013496;28;20252;-68
2022/03/30 07:00:32;;;;;;;10.30;9.30;;;11.10;30.00;;;;;;5014423;28;20193;-68
2022/03/30 07:02:58;;;;;;;12.40;9.27;;;11.20;29.50;;;;;;5014563;28;20208;-68
2022/03/30 07:05:24;;;;;;;13.90;10.17;;;11.20;29.40;;;;;;5014168;28;20419;-68
2022/03/30 07:10:33;;;;;;;16.70;10.77;;;11.20;29.00;;;;;;5014904;28;20213;-69
2022/03/30 07:13:03;;;;;;;15.07;10.83;;;11.10;29.40;;;;;;5013306;28;20456;-68
2022/03/30 07:15:30;;;;;;;10.63;9.60;;;11.10;29.30;;;;;;5013225;28;20448;-69
2022/03/30 07:17:58;;;;;;;14.87;10.70;;;11.00;29.60;;;;;;5012505;28;20933;-69
2022/03/30 07:20:26;;;;;;;20.13;10.63;;;11.10;29.90;;;;;;5012270;28;20461;-68
2022/03/30 07:22:52;;;;;;;16.70;10.90;;;11.10;30.00;;;;;;5012462;28;20438;-68
2022/03/30 07:25:21;;;;;;;11.90;10.80;;;11.00;30.90;;;;;;5012335;28;20949;-70
2022/03/30 07:27:50;;;;;;;22.63;9.50;;;11.00;31.30;;;;;;5011999;28;20485;-67
2022/03/30 07:30:16;;;;;;;16.90;10.70;;;11.00;31.60;;;;;;5010532;28;20531;-69
2022/03/30 07:32:44;;;;;;;18.50;11.50;;;11.00;31.50;;;;;;5012829;28;20956;-67
2022/03/30 07:35:12;;;;;;;11.90;9.40;;;11.00;31.80;;;;;;5012711;28;20457;-67
2022/03/30 07:37:39;;;;;;;22.10;11.10;;;10.90;31.80;;;;;;5011386;28;20428;-67
2022/03/30 07:40:07;;;;;;;15.03;12.90;;;11.00;31.80;;;;;;5011748;28;20830;-68
2022/03/30 07:42:34;;;;;;;13.70;10.10;;;10.90;31.80;;;;;;5012637;28;20790;-68
2022/03/30 07:45:00;;;;;;;17.33;12.10;;;10.90;31.70;;;;;;5013178;28;20417;-67
2022/03/30 07:47:25;;;;;;;18.63;12.23;;;10.90;31.80;;;;;;5012408;28;20425;-68
2022/03/30 07:49:52;;;;;;;15.27;9.90;;;10.90;31.70;;;;;;5012214;28;20220;-68
2022/03/30 07:52:21;;;;;;;19.20;13.77;;;10.90;32.40;;;;;;5011998;28;20200;-69
2022/03/30 07:54:48;;;;;;;14.03;12.63;;;10.80;32.90;;;;;;5011156;28;20838;-67
2022/03/30 07:57:14;;;;;;;15.10;10.73;;;10.90;32.40;;;;;;5012067;28;20411;-66
2022/03/30 07:59:39;;;;;;;11.67;10.47;;;10.90;32.30;;;;;;5012218;28;20457;-68
2022/03/30 08:02:05;;;;;;;15.53;9.60;;;10.90;32.00;;;;;;5011593;28;20423;-69
2022/03/30 08:04:30;;;;;;;14.27;10.27;;;11.00;31.90;;;;;;5012851;28;20199;-68
2022/03/30 08:06:56;;;;;;;11.60;10.40;;;11.10;31.90;;;;;;5011942;28;20214;-68
2022/03/30 08:09:22;;;;;;;11.50;9.80;;;11.10;31.90;;;;;;5012609;28;20447;-68
2022/03/30 08:11:47;;;;;;;11.80;9.57;;;11.20;32.00;;;;;;5012040;28;20212;-68
2022/03/30 08:14:13;;;;;;;12.03;10.93;;;11.20;32.00;;;;;;5012209;28;20172;-68
2022/03/30 08:16:39;;;;;;;16.93;10.33;;;11.20;32.00;;;;;;5011804;28;20191;-68
2022/03/30 08:19:06;;;;;;;11.80;9.10;;;11.20;32.00;;;;;;5012492;28;20249;-68
2022/03/30 08:24:17;;;;;;;13.60;10.60;;;11.40;32.20;;;;;;5012386;28;20447;-68
2022/03/30 08:26:42;;;;;;;11.37;9.50;;;11.40;32.20;;;;;;5011777;28;20519;-68
2022/03/30 08:29:09;;;;;;;10.37;9.50;;;11.50;32.30;;;;;;5012418;28;20970;-68
2022/03/30 08:31:35;;;;;;;17.17;10.40;;;11.60;31.40;;;;;;5011579;28;20553;-68
2022/03/30 08:34:01;;;;;;;14.40;8.93;;;11.60;30.90;;;;;;5012406;28;20417;-67
2022/03/30 08:36:31;;;;;;;13.43;10.70;;;11.60;31.30;;;;;;5010544;28;20425;-68
2022/03/30 08:38:57;;;;;;;11.97;9.70;;;11.60;30.80;;;;;;5012615;28;20230;-69
2022/03/30 08:41:23;;;;;;;13.40;9.40;;;11.70;30.50;;;;;;5012780;28;20997;-68
2022/03/30 08:43:49;;;;;;;11.73;10.07;;;11.70;30.40;;;;;;5012439;28;20515;-68
2022/03/30 08:46:15;;;;;;;12.90;10.67;;;11.70;29.90;;;;;;5012289;28;20249;-68
2022/03/30 08:48:41;;;;;;;10.27;9.47;;;11.80;30.30;;;;;;5012652;28;20195;-68
2022/03/30 08:51:08;;;;;;;12.80;9.90;;;11.80;30.10;;;;;;5013538;28;20639;-68
2022/03/30 08:53:34;;;;;;;15.80;11.73;;;11.80;30.10;;;;;;5017157;28;20467;-67
2022/03/30 08:55:59;;;;;;;10.90;9.80;;;11.90;30.50;;;;;;5016658;28;20874;-69
2022/03/30 08:58:25;;;;;;;14.07;11.83;;;11.90;29.70;;;;;;5016515;28;20433;-68
2022/03/30 09:00:51;;;;;;;11.27;10.17;;;12.00;29.50;;;;;;5017121;28;20234;-68
2022/03/30 09:03:17;;;;;;;11.03;10.03;;;12.10;29.10;;;;;;5016730;28;20428;-68
2022/03/30 09:05:43;;;;;;;16.07;11.50;;;12.20;28.30;;;;;;5017016;28;20915;-68
2022/03/30 09:08:20;;;;;;;12.60;11.30;;;12.20;28.30;;;;;;5016235;28;20519;-68
2022/03/30 09:10:48;;;;;;;12.67;11.40;;;12.30;28.70;;;;;;5016727;28;20537;-68
2022/03/30 09:13:17;;;;;;;28.53;17.10;;;12.40;28.70;;;;;;5015234;28;20466;-68
2022/03/30 09:15:44;;;;;;;22.23;12.67;;;12.50;28.10;;;;;;5015938;28;20414;-69
2022/03/30 09:18:10;;;;;;;11.80;10.60;;;12.40;28.70;;;;;;5016057;28;20889;-69
2022/03/30 09:20:42;;;;;;;21.80;11.60;;;12.00;30.80;;;;;;5015693;28;20828;-68
2022/03/30 09:23:10;;;;;;;12.17;11.07;;;12.10;31.30;;;;;;5016437;28;20472;-70
2022/03/30 09:25:36;;;;;;;16.93;12.13;;;12.30;30.60;;;;;;5014402;28;20434;-69
2022/03/30 09:28:03;;;;;;;20.27;14.50;;;12.50;30.10;;;;;;5015451;28;20422;-69
2022/03/30 09:30:29;;;;;;;13.57;12.13;;;12.60;29.60;;;;;;5015209;28;20445;-69
2022/03/30 09:32:57;;;;;;;17.10;12.20;;;12.70;29.00;;;;;;5015302;28;20479;-68
2022/03/30 09:35:24;;;;;;;19.90;12.90;;;12.80;28.80;;;;;;5014909;28;20776;-68
2022/03/30 09:38:13;;;;;;;15.40;13.17;;;12.90;28.80;;;;;;5014552;28;20415;-69
2022/03/30 09:40:49;;;;;;;12.80;11.70;;;13.20;28.30;;;;;;5014638;28;21029;-68
2022/03/30 09:43:23;;;;;;;14.93;13.37;;;13.30;28.10;;;;;;5015807;28;20777;-69
2022/03/30 09:46:04;;;;;;;17.03;14.37;;;13.30;27.40;;;;;;5014867;28;20434;-68
2022/03/30 09:48:32;;;;;;;25.93;15.57;;;13.50;26.70;;;;;;5014793;28;20445;-69
2022/03/30 09:50:59;;;;;;;16.73;13.93;;;13.40;26.50;;;;;;5014762;28;20453;-69
2022/03/30 09:53:30;;;;;;;16.87;15.17;;;13.50;25.70;;;;;;5015053;28;21019;-69
2022/03/30 09:56:07;;;;;;;13.43;12.33;;;13.60;25.10;;;;;;5011330;28;20441;-69
2022/03/30 09:58:36;;;;;;;14.43;12.37;;;13.60;25.40;;;;;;5013627;28;20971;-67
2022/03/30 10:01:12;;;;;;;16.83;12.93;;;13.60;25.40;;;;;;5014422;28;20419;-68
2022/03/30 10:03:43;;;;;;;19.23;14.43;;;13.60;25.10;;;;;;5012188;28;20415;-68
2022/03/30 10:06:11;;;;;;;13.40;12.17;;;13.70;25.10;;;;;;5012414;28;20443;-68
2022/03/30 10:08:39;;;;;;;14.30;13.10;;;13.80;25.20;;;;;;5014006;28;20425;-68
2022/03/30 10:11:05;;;;;;;16.70;15.10;;;13.70;25.10;;;;;;5012943;28;20932;-69
2022/03/30 10:13:31;;;;;;;13.17;11.90;;;13.50;25.30;;;;;;5013004;28;20471;-68
2022/03/30 10:15:58;;;;;;;13.57;12.20;;;13.50;25.60;;;;;;5014998;28;20490;-68
2022/03/30 10:18:25;;;;;;;19.63;12.70;;;13.30;26.10;;;;;;5013742;28;20269;-68
2022/03/30 10:21:22;;;;;;;14.53;13.33;;;13.40;26.10;;;;;;5014406;28;20793;-68
2022/03/30 10:23:59;;;;;;;16.33;12.60;;;13.60;26.10;;;;;;5006692;28;20448;-68
2022/03/30 10:27:01;;;;;;;14.37;12.90;;;13.80;25.20;;;;;;5014206;28;20446;-68
2022/03/30 10:29:29;;;;;;;13.27;11.60;;;13.90;25.70;;;;;;5014718;28;20450;-69
2022/03/30 10:32:24;;;;;;;14.23;13.03;;;14.00;25.00;;;;;;5014231;28;20464;-68
2022/03/30 10:35:12;;;;;;;13.80;12.50;;;14.10;24.20;;;;;;5005293;28;20498;-67
2022/03/30 10:37:42;;;;;;;14.27;12.97;;;14.10;23.80;;;;;;5014118;28;20422;-68
2022/03/30 10:40:14;;;;;;;26.23;14.37;;;14.10;24.10;;;;;;5014591;28;20439;-67
2022/03/30 10:42:46;;;;;;;13.93;12.70;;;14.20;24.30;;;;;;5013774;28;20994;-67
2022/03/30 10:45:17;;;;;;;13.87;12.37;;;14.30;23.90;;;;;;5013871;28;20471;-68
2022/03/30 10:48:20;;;;;;;15.37;12.40;;;14.20;23.80;;;;;;5014449;28;20424;-68
2022/03/30 10:50:56;;;;;;;13.33;12.30;;;14.20;23.30;;;;;;5013363;28;20451;-68
2022/03/30 10:53:31;;;;;;;14.60;12.10;;;14.30;23.60;;;;;;5013959;28;20838;-68
2022/03/30 10:56:15;;;;;;;12.73;11.97;;;14.50;23.60;;;;;;5014074;28;20435;-68
2022/03/30 10:58:49;;;;;;;16.83;15.20;;;14.60;22.60;;;;;;5014010;28;20404;-68
2022/03/30 11:01:18;;;;;;;14.93;13.37;;;14.70;22.30;;;;;;5013767;28;20441;-67
2022/03/30 11:04:17;;;;;;;14.67;13.70;;;14.90;22.80;;;;;;5013701;28;20428;-68
2022/03/30 11:07:29;;;;;;;14.27;13.27;;;15.20;21.10;;;;;;5011576;28;20801;-67
2022/03/30 11:10:17;;;;;;;15.63;14.63;;;15.40;21.00;;;;;;4992599;28;20552;-68
2022/03/30 11:12:59;;;;;;;13.60;12.77;;;15.50;20.10;;;;;;5012349;28;20473;-69
2022/03/30 11:15:24;;;;;;;15.57;14.37;;;15.80;20.30;;;;;;5012380;28;20896;-69
2022/03/30 11:17:50;;;;;;;14.20;13.43;;;16.10;19.30;;;;;;5011892;28;20476;-69
2022/03/30 11:20:16;;;;;;;15.87;14.67;;;16.40;19.00;;;;;;5012491;28;20243;-68
2022/03/30 11:22:44;;;;;;;16.37;15.10;;;16.60;18.60;;;;;;5007356;28;20188;-67
2022/03/30 11:25:12;;;;;;;16.60;15.33;;;16.70;18.40;;;;;;4992518;28;20473;-69
2022/03/30 11:27:39;;;;;;;16.10;14.80;;;16.70;17.50;;;;;;4992125;28;20448;-68
2022/03/30 11:30:05;;;;;;;15.87;14.53;;;16.70;17.40;;;;;;4992270;28;20814;-69
2022/03/30 11:32:39;;;;;;;14.70;13.80;;;16.90;17.00;;;;;;4992265;28;20521;-69
2022/03/30 11:35:17;;;;;;;17.23;15.63;;;17.00;17.00;;;;;;4999377;28;20179;-68
2022/03/30 11:37:48;;;;;;;16.60;15.33;;;16.80;16.70;;;;;;5012176;28;20413;-68
2022/03/30 11:40:15;;;;;;;14.40;13.60;;;16.90;15.40;;;;;;5011915;28;20449;-68
2022/03/30 11:42:51;;;;;;;14.53;13.80;;;17.10;16.60;;;;;;5012645;28;20455;-68
2022/03/30 11:45:20;;;;;;;15.97;14.90;;;17.10;15.80;;;;;;5013142;28;20413;-68
2022/03/30 11:47:52;;;;;;;17.10;16.07;;;17.20;15.30;;;;;;5001523;28;20941;-68
2022/03/30 11:50:38;;;;;;;16.83;15.30;;;17.10;14.20;;;;;;4993592;28;20522;-68
2022/03/30 11:53:06;;;;;;;15.93;14.80;;;17.10;14.60;;;;;;4997038;28;20549;-68
2022/03/30 11:55:57;;;;;;;16.73;15.60;;;17.20;14.60;;;;;;5011994;28;20449;-68
2022/03/30 11:58:27;;;;;;;16.00;14.70;;;17.30;14.70;;;;;;5006334;28;20431;-68
2022/03/30 12:00:56;;;;;;;18.57;16.63;;;17.50;14.90;;;;;;5012707;28;20521;-70
2022/03/30 12:03:22;;;;;;;17.10;15.90;;;17.70;14.50;;;;;;5013281;28;20426;-67
2022/03/30 12:05:51;;;;;;;15.10;14.30;;;17.60;13.20;;;;;;5012445;28;20929;-67
2022/03/30 12:08:17;;;;;;;16.57;15.10;;;17.60;14.40;;;;;;5013591;28;20995;-68
2022/03/30 12:10:43;;;;;;;17.37;16.27;;;17.50;14.10;;;;;;5012658;28;20821;-70
2022/03/30 12:13:08;;;;;;;17.47;16.10;;;17.50;13.80;;;;;;5011278;28;20462;-67
2022/03/30 12:15:36;;;;;;;15.37;14.50;;;17.50;14.30;;;;;;5011039;28;20180;-69
2022/03/30 12:18:02;;;;;;;16.53;15.53;;;17.40;13.40;;;;;;5006194;28;20242;-68
2022/03/30 12:20:33;;;;;;;15.43;14.30;;;17.40;13.10;;;;;;5005843;28;20976;-68
2022/03/30 12:23:04;;;;;;;16.27;15.27;;;17.40;13.00;;;;;;4998917;28;20207;-68
2022/03/30 12:25:33;;;;;;;14.13;13.37;;;17.30;13.30;;;;;;5006022;28;20430;-68
2022/03/30 12:28:00;;;;;;;15.77;14.87;;;17.40;13.00;;;;;;5012178;28;20802;-68
2022/03/30 12:30:29;;;;;;;15.73;14.80;;;17.50;13.00;;;;;;5005885;28;21024;-69
2022/03/30 12:32:55;;;;;;;16.97;15.70;;;17.60;13.10;;;;;;5004784;28;21068;-68
2022/03/30 12:35:21;;;;;;;15.67;14.70;;;17.70;12.20;;;;;;5008835;28;20429;-68
2022/03/30 12:37:48;;;;;;;16.07;14.60;;;17.60;12.10;;;;;;5009284;28;20422;-68
2022/03/30 12:40:20;;;;;;;18.33;16.37;;;17.40;11.80;;;;;;5007546;28;20451;-70